Time;durP1;ratioP1;P1;durP2;ratioP2;P2;SDS_P1;SDS_P2;PMS_P1;PMS_P2;Temp;Humidity;BMP_temperature;BMP_pressure;BME280_temperature;BME280_humidity;BME280_pressure;Samples;Min_cycle;Max_cycle;Signal;HPM_P1;HPM_P2
2022/04/26 03:37:07;;;;;;;6.55;4.57;;;9.60;85.40;;;;;;5034288;28;20141;-75
2022/04/26 03:39:33;;;;;;;4.82;4.22;;;9.50;85.00;;;;;;5034328;28;20475;-75
2022/04/26 03:41:59;;;;;;;5.72;4.43;;;9.60;84.90;;;;;;5034246;28;20044;-74
2022/04/26 03:44:25;;;;;;;5.60;4.57;;;9.60;85.20;;;;;;5034400;28;20070;-75
2022/04/26 03:46:50;;;;;;;5.40;4.85;;;9.60;84.50;;;;;;5032857;28;20494;-75
2022/04/26 03:49:16;;;;;;;6.80;4.60;;;9.50;83.20;;;;;;5034089;28;20032;-75
2022/04/26 03:51:42;;;;;;;5.88;4.82;;;9.50;82.80;;;;;;5034165;28;20028;-75
2022/04/26 03:54:07;;;;;;;6.93;4.68;;;9.50;82.40;;;;;;5033996;28;20028;-75
2022/04/26 03:56:33;;;;;;;6.45;5.32;;;9.50;82.20;;;;;;5033988;28;20072;-75
2022/04/26 03:58:59;;;;;;;7.28;4.88;;;9.50;82.30;;;;;;5034050;28;20096;-75
2022/04/26 04:01:24;;;;;;;7.85;5.10;;;9.50;82.60;;;;;;5033814;28;20033;-75
2022/04/26 04:03:50;;;;;;;6.65;5.10;;;9.50;82.10;;;;;;5033880;28;20022;-75
2022/04/26 04:06:15;;;;;;;6.93;5.50;;;9.50;82.60;;;;;;5033732;28;20439;-75
2022/04/26 04:08:41;;;;;;;6.82;5.55;;;9.60;82.50;;;;;;5033909;28;20426;-75
2022/04/26 04:11:06;;;;;;;9.02;5.40;;;9.60;82.60;;;;;;5033716;28;20361;-75
2022/04/26 04:13:32;;;;;;;7.40;5.18;;;9.60;82.80;;;;;;5033759;28;20495;-75
2022/04/26 04:15:57;;;;;;;7.72;6.47;;;9.60;83.00;;;;;;5033761;28;20026;-75
2022/04/26 04:21:08;;;;;;;8.32;6.13;;;9.60;83.80;;;;;;5033576;28;20087;-75
2022/04/26 04:23:38;;;;;;;9.13;6.45;;;9.60;84.10;;;;;;5033515;28;20060;-75
2022/04/26 04:26:03;;;;;;;8.55;6.03;;;9.70;84.20;;;;;;5032233;28;20017;-75
2022/04/26 04:28:29;;;;;;;8.60;6.55;;;9.60;83.80;;;;;;5033460;28;20022;-75
2022/04/26 04:30:54;;;;;;;9.88;6.55;;;9.60;84.00;;;;;;5033037;28;20376;-75
2022/04/26 04:33:20;;;;;;;8.98;6.32;;;9.50;83.90;;;;;;5033182;28;20052;-75
2022/04/26 04:35:45;;;;;;;7.43;5.90;;;9.50;83.70;;;;;;5033181;28;20076;-75
2022/04/26 04:38:11;;;;;;;9.30;6.40;;;9.50;83.60;;;;;;5033450;28;20034;-76
2022/04/26 04:40:36;;;;;;;10.25;6.25;;;9.50;83.00;;;;;;5033311;28;20025;-76
2022/04/26 04:43:02;;;;;;;7.07;5.85;;;9.50;83.00;;;;;;5033300;28;20029;-76
2022/04/26 04:45:28;;;;;;;9.45;7.05;;;9.50;83.50;;;;;;5032024;28;20026;-76
2022/04/26 04:47:53;;;;;;;11.05;7.00;;;9.40;83.40;;;;;;5033015;28;20096;-76
2022/04/26 04:50:19;;;;;;;8.43;6.47;;;9.40;83.50;;;;;;5033206;28;20053;-76
2022/04/26 04:52:45;;;;;;;7.93;5.65;;;9.40;83.60;;;;;;5033003;28;20024;-76
2022/04/26 04:55:11;;;;;;;12.82;6.90;;;9.40;83.60;;;;;;5033027;28;20029;-76
2022/04/26 04:57:37;;;;;;;11.23;6.97;;;9.40;83.70;;;;;;5033032;28;20022;-76
2022/04/26 05:00:04;;;;;;;8.98;6.25;;;9.50;83.70;;;;;;5032958;28;20045;-76
2022/04/26 05:02:30;;;;;;;8.05;5.70;;;9.60;83.70;;;;;;5032822;28;20037;-77
2022/04/26 05:04:56;;;;;;;9.93;6.63;;;9.70;84.30;;;;;;5031602;28;20031;-76
2022/04/26 05:07:21;;;;;;;8.73;6.47;;;9.70;84.60;;;;;;5032844;28;20036;-76
2022/04/26 05:09:47;;;;;;;7.13;6.22;;;9.70;85.50;;;;;;5031555;28;20025;-76
2022/04/26 05:12:12;;;;;;;7.85;5.68;;;9.70;85.70;;;;;;5032732;28;20030;-77
2022/04/26 05:14:38;;;;;;;15.75;6.15;;;9.70;85.00;;;;;;5032650;28;20476;-74
2022/04/26 05:17:03;;;;;;;8.10;6.38;;;9.70;85.20;;;;;;5032347;28;20064;-75
2022/04/26 05:19:29;;;;;;;6.40;5.22;;;9.70;85.30;;;;;;5038087;28;20522;-75
2022/04/26 05:21:55;;;;;;;8.65;6.10;;;9.70;85.20;;;;;;5039236;28;20041;-75
2022/04/26 05:27:05;;;;;;;7.97;5.70;;;9.70;85.00;;;;;;5038974;28;20489;-75
2022/04/26 05:29:30;;;;;;;7.10;5.95;;;9.70;85.10;;;;;;5038987;28;20048;-75
2022/04/26 05:31:56;;;;;;;7.70;6.45;;;9.70;85.00;;;;;;5039081;28;20460;-75
2022/04/26 05:34:21;;;;;;;10.70;7.45;;;9.70;84.90;;;;;;5037759;28;20394;-75
2022/04/26 05:36:47;;;;;;;10.02;6.70;;;9.70;84.70;;;;;;5038997;28;20449;-75
2022/04/26 05:39:12;;;;;;;10.00;7.15;;;9.70;84.80;;;;;;5039115;28;20033;-75
2022/04/26 05:41:38;;;;;;;10.35;6.85;;;9.70;85.10;;;;;;5038822;28;20029;-76
2022/04/26 05:44:04;;;;;;;10.25;7.45;;;9.70;85.40;;;;;;5038975;28;20018;-75
2022/04/26 05:46:29;;;;;;;9.02;7.03;;;9.70;85.50;;;;;;5038948;28;20079;-75
2022/04/26 05:48:55;;;;;;;12.90;8.50;;;9.70;84.00;;;;;;5038818;28;20021;-75
2022/04/26 05:51:22;;;;;;;11.20;7.72;;;9.60;84.40;;;;;;5038909;28;20033;-75
2022/04/26 05:53:48;;;;;;;10.82;8.00;;;9.60;84.90;;;;;;5038968;28;20017;-76
2022/04/26 05:56:15;;;;;;;9.07;6.68;;;9.60;85.30;;;;;;5038835;28;20043;-76
2022/04/26 05:58:41;;;;;;;8.27;6.05;;;9.50;85.00;;;;;;5038759;28;20025;-76
2022/04/26 06:01:06;;;;;;;8.38;6.20;;;9.50;85.10;;;;;;5038517;28;20029;-76
2022/04/26 06:03:33;;;;;;;12.70;7.72;;;9.60;85.10;;;;;;5038587;28;20052;-76
2022/04/26 06:05:59;;;;;;;10.80;6.43;;;9.60;85.60;;;;;;5038748;28;20021;-77
2022/04/26 06:08:25;;;;;;;12.40;7.03;;;9.60;85.10;;;;;;5038768;28;20082;-75
2022/04/26 06:10:50;;;;;;;8.00;6.40;;;9.60;84.90;;;;;;5038751;28;20033;-76
2022/04/26 06:13:16;;;;;;;8.32;5.57;;;9.60;84.80;;;;;;5038073;28;20044;-76
2022/04/26 06:15:41;;;;;;;6.18;4.75;;;9.60;84.80;;;;;;5038435;28;20082;-75
2022/04/26 06:18:07;;;;;;;8.60;5.85;;;9.50;84.40;;;;;;5038620;28;20025;-76
2022/04/26 06:20:33;;;;;;;8.30;5.43;;;9.50;84.60;;;;;;5038305;28;20025;-76
2022/04/26 06:22:58;;;;;;;7.93;5.00;;;9.60;84.60;;;;;;5038597;28;20032;-76
2022/04/26 06:25:24;;;;;;;9.40;5.55;;;9.60;84.80;;;;;;5038610;28;20455;-75
2022/04/26 06:27:49;;;;;;;11.68;6.97;;;9.60;84.70;;;;;;5038622;28;20372;-75
2022/04/26 06:30:15;;;;;;;9.43;6.78;;;9.70;84.70;;;;;;5034222;28;20017;-75
2022/04/26 06:32:44;;;;;;;13.85;7.07;;;9.70;84.50;;;;;;5035072;28;20036;-76
2022/04/26 06:35:10;;;;;;;10.05;6.88;;;9.70;84.30;;;;;;5035202;28;20022;-76
2022/04/26 06:37:36;;;;;;;9.05;5.93;;;9.70;84.10;;;;;;5034436;28;20144;-75
2022/04/26 06:40:03;;;;;;;8.77;5.63;;;9.70;83.50;;;;;;5034409;28;20480;-76
2022/04/26 06:42:29;;;;;;;7.50;5.35;;;9.70;83.10;;;;;;5034068;28;20326;-73
2022/04/26 06:44:54;;;;;;;5.85;5.00;;;9.70;83.00;;;;;;5035157;28;20029;-75
2022/04/26 06:47:20;;;;;;;7.43;4.47;;;9.70;82.90;;;;;;5035320;28;20029;-74
2022/04/26 06:49:46;;;;;;;8.52;5.90;;;9.70;83.00;;;;;;5034210;28;20095;-73
2022/04/26 06:52:11;;;;;;;6.88;4.65;;;9.80;83.20;;;;;;5035595;28;20026;-74
2022/04/26 06:54:37;;;;;;;7.78;5.38;;;9.90;83.80;;;;;;5035534;28;20479;-75
2022/04/26 06:57:03;;;;;;;8.55;5.82;;;9.90;83.80;;;;;;5034458;28;20026;-74
2022/04/26 06:59:28;;;;;;;6.03;4.30;;;10.00;83.60;;;;;;5034172;28;20021;-74
2022/04/26 07:01:55;;;;;;;7.90;5.45;;;10.10;82.60;;;;;;5035573;28;20069;-74
2022/04/26 07:04:21;;;;;;;6.45;5.47;;;10.10;82.80;;;;;;5035389;28;20109;-75
2022/04/26 07:06:48;;;;;;;7.38;5.80;;;10.10;83.00;;;;;;5035363;28;20059;-76
2022/04/26 07:09:13;;;;;;;17.48;5.45;;;10.30;83.00;;;;;;5035864;28;20026;-74
2022/04/26 07:11:39;;;;;;;7.90;5.43;;;10.60;85.50;;;;;;5035293;28;20468;-74
2022/04/26 07:14:05;;;;;;;7.10;4.78;;;10.90;83.90;;;;;;5035510;28;20487;-74
2022/04/26 07:16:30;;;;;;;10.18;5.15;;;11.20;81.70;;;;;;5035205;28;20036;-75
2022/04/26 07:18:56;;;;;;;10.80;5.38;;;11.50;79.30;;;;;;5034647;28;20025;-73
2022/04/26 07:21:22;;;;;;;6.65;4.55;;;11.80;77.60;;;;;;5034592;28;20083;-73
2022/04/26 07:23:47;;;;;;;7.55;5.55;;;12.00;76.50;;;;;;5034517;28;20091;-73
2022/04/26 07:26:14;;;;;;;9.77;4.78;;;12.10;74.80;;;;;;5034609;28;20025;-73
2022/04/26 07:28:40;;;;;;;7.30;5.10;;;12.20;74.30;;;;;;5034887;28;20030;-75
2022/04/26 07:31:08;;;;;;;7.38;4.10;;;12.20;72.70;;;;;;5034880;28;20033;-75
2022/04/26 07:36:21;;;;;;;6.88;5.13;;;11.80;72.50;;;;;;5034333;28;20422;-75
2022/04/26 07:38:47;;;;;;;8.38;4.82;;;11.50;72.40;;;;;;5034328;28;20152;-75
2022/04/26 07:41:13;;;;;;;9.90;5.78;;;11.40;73.00;;;;;;5033912;28;20120;-75
2022/04/26 07:43:39;;;;;;;8.75;5.82;;;11.30;72.70;;;;;;5034537;28;20534;-74
2022/04/26 07:46:05;;;;;;;7.78;5.95;;;10.80;72.00;;;;;;5034259;28;20033;-74
2022/04/26 07:48:30;;;;;;;9.63;6.28;;;10.60;73.50;;;;;;5033898;28;20075;-76
2022/04/26 07:50:56;;;;;;;8.52;5.95;;;10.60;72.30;;;;;;5032987;28;20063;-75
2022/04/26 07:53:25;;;;;;;7.35;5.70;;;10.40;71.40;;;;;;5034250;28;20026;-75
2022/04/26 07:55:50;;;;;;;7.97;5.60;;;10.40;71.90;;;;;;5033077;28;20025;-75
2022/04/26 07:58:16;;;;;;;8.45;5.72;;;10.30;72.10;;;;;;5034128;28;20109;-75
2022/04/26 08:00:41;;;;;;;10.40;5.70;;;10.20;73.90;;;;;;5034230;28;20131;-75
2022/04/26 08:03:07;;;;;;;10.40;6.20;;;10.20;72.90;;;;;;5034212;28;20049;-75
2022/04/26 08:05:33;;;;;;;9.57;5.72;;;10.20;72.60;;;;;;5034216;28;20021;-76
2022/04/26 08:07:58;;;;;;;9.32;5.75;;;10.20;74.30;;;;;;5034011;28;20056;-76
2022/04/26 08:10:24;;;;;;;8.00;5.47;;;10.20;74.10;;;;;;5034379;28;20104;-75
2022/04/26 08:12:50;;;;;;;8.45;5.40;;;10.30;73.50;;;;;;5034259;28;20013;-77
2022/04/26 08:15:18;;;;;;;6.22;4.55;;;10.50;72.90;;;;;;5034211;28;20029;-76
2022/04/26 08:17:44;;;;;;;8.10;4.70;;;10.50;73.10;;;;;;5032761;28;20099;-76
2022/04/26 08:20:10;;;;;;;9.35;5.85;;;10.60;72.70;;;;;;5033073;28;20029;-76
2022/04/26 08:22:37;;;;;;;13.57;6.60;;;10.60;72.10;;;;;;5032741;28;20042;-76
2022/04/26 08:27:47;;;;;;;8.45;6.00;;;10.30;75.70;;;;;;5034090;28;20083;-76
2022/04/26 08:30:13;;;;;;;6.65;5.82;;;10.40;75.10;;;;;;5033857;28;20022;-77
2022/04/26 08:32:44;;;;;;;7.13;5.22;;;10.50;75.00;;;;;;5033827;28;20032;-75
2022/04/26 08:35:13;;;;;;;10.60;7.18;;;10.50;75.20;;;;;;5033928;28;20026;-75
2022/04/26 08:37:38;;;;;;;9.23;6.00;;;10.60;74.90;;;;;;5033538;28;20045;-75
2022/04/26 08:40:07;;;;;;;10.23;7.00;;;10.70;74.10;;;;;;5033706;28;20048;-75
2022/04/26 08:42:37;;;;;;;7.30;6.32;;;10.60;72.80;;;;;;5033451;28;20033;-75
2022/04/26 08:45:05;;;;;;;9.88;6.32;;;10.60;73.70;;;;;;5032178;28;20022;-75
2022/04/26 08:53:00;;;;;;;8.13;6.25;;;10.90;73.80;;;;;;5031797;28;20080;-74
2022/04/26 08:55:26;;;;;;;10.27;6.60;;;11.10;72.70;;;;;;5032711;28;20079;-75
2022/04/26 08:57:52;;;;;;;11.52;6.07;;;11.20;71.40;;;;;;5032789;28;20033;-75
2022/04/26 09:00:18;;;;;;;8.35;5.82;;;11.10;71.00;;;;;;5032725;28;20095;-75
2022/04/26 09:03:00;;;;;;;10.70;7.15;;;11.10;71.40;;;;;;5032694;28;20037;-77
2022/04/26 09:05:26;;;;;;;10.95;5.53;;;11.30;70.60;;;;;;5032727;28;20022;-75
2022/04/26 09:07:51;;;;;;;9.90;5.80;;;11.30;67.90;;;;;;5032649;28;20033;-75
2022/04/26 09:10:19;;;;;;;10.85;6.68;;;11.30;68.70;;;;;;5031293;28;20505;-75
2022/04/26 09:13:11;;;;;;;7.80;5.90;;;11.30;68.90;;;;;;5031350;28;20025;-75
2022/04/26 09:15:38;;;;;;;7.50;5.65;;;11.20;66.90;;;;;;5032687;28;20025;-75
2022/04/26 09:18:20;;;;;;;8.85;5.70;;;11.40;66.30;;;;;;5032568;28;20021;-74
2022/04/26 09:20:48;;;;;;;7.30;5.50;;;11.60;65.40;;;;;;5032243;28;20087;-74
2022/04/26 09:23:18;;;;;;;7.43;5.70;;;11.70;66.50;;;;;;5032534;28;20041;-75
2022/04/26 09:25:44;;;;;;;8.02;5.32;;;11.80;67.40;;;;;;5032409;28;20021;-76
2022/04/26 09:28:20;;;;;;;9.98;5.55;;;11.80;66.80;;;;;;5032436;28;20590;-73
2022/04/26 09:30:46;;;;;;;9.90;5.25;;;11.80;66.80;;;;;;5032570;28;20018;-75
2022/04/26 09:33:32;;;;;;;8.65;6.05;;;11.70;66.60;;;;;;5031025;28;20055;-77
2022/04/26 09:36:01;;;;;;;;;;;11.50;67.70;;;;;;5031219;28;20041;-74
2022/04/26 09:38:31;;;;;;;9.50;4.53;;;11.40;63.20;;;;;;5032359;28;19920;-74
2022/04/26 09:41:00;;;;;;;12.45;5.03;;;11.20;64.40;;;;;;5032589;28;20353;-75
2022/04/26 09:43:26;;;;;;;10.75;4.68;;;11.30;66.10;;;;;;5032196;28;20029;-76
2022/04/26 09:45:57;;;;;;;5.82;4.22;;;11.20;65.90;;;;;;5032954;28;20025;-76
2022/04/26 09:48:27;;;;;;;5.97;3.90;;;11.20;63.50;;;;;;5033888;28;20025;-76
2022/04/26 09:50:53;;;;;;;8.25;5.20;;;11.40;62.10;;;;;;5034042;28;20018;-76
2022/04/26 09:53:19;;;;;;;7.90;4.60;;;11.40;62.80;;;;;;5033182;28;20024;-76
2022/04/26 09:55:47;;;;;;;10.82;5.22;;;11.60;59.50;;;;;;5031515;28;20025;-76
2022/04/26 09:58:16;;;;;;;9.43;4.38;;;11.70;58.90;;;;;;5032479;28;20031;-76
2022/04/26 10:00:47;;;;;;;6.60;4.70;;;12.10;57.10;;;;;;5032391;28;20025;-75
2022/04/26 10:03:16;;;;;;;8.52;4.03;;;12.40;55.10;;;;;;5032534;28;20070;-75
2022/04/26 10:05:45;;;;;;;6.20;4.25;;;12.60;54.50;;;;;;5035329;28;20036;-76
2022/04/26 10:08:13;;;;;;;14.05;3.85;;;12.60;53.80;;;;;;5035735;28;20537;-75
2022/04/26 10:10:39;;;;;;;7.32;3.30;;;12.60;47.80;;;;;;5035535;28;20018;-74
2022/04/26 10:15:50;;;;;;;10.10;4.18;;;12.30;51.60;;;;;;5035145;28;20029;-75
2022/04/26 10:18:32;;;;;;;10.07;3.95;;;12.10;52.90;;;;;;5034905;28;20121;-75
2022/04/26 10:20:59;;;;;;;9.48;4.38;;;12.00;54.80;;;;;;5034888;28;20029;-75
2022/04/26 10:23:24;;;;;;;6.10;3.65;;;12.20;54.60;;;;;;5034817;28;20105;-76
2022/04/26 10:26:22;;;;;;;6.68;3.83;;;12.40;52.60;;;;;;5035215;28;20049;-75
2022/04/26 10:28:59;;;;;;;7.65;4.38;;;12.70;53.40;;;;;;5034833;28;20029;-76
2022/04/26 10:31:47;;;;;;;9.40;4.85;;;13.10;53.50;;;;;;5034996;28;20025;-76
2022/04/26 10:34:28;;;;;;;7.95;4.35;;;13.40;49.20;;;;;;5035030;28;20391;-74
2022/04/26 10:37:06;;;;;;;6.25;3.72;;;13.50;47.50;;;;;;5035106;28;20507;-74
2022/04/26 10:39:34;;;;;;;6.97;4.07;;;13.40;48.60;;;;;;5034964;28;20472;-76
2022/04/26 10:42:02;;;;;;;8.18;4.65;;;13.60;47.90;;;;;;5034838;28;20044;-76
2022/04/26 10:44:31;;;;;;;9.20;4.35;;;13.60;48.80;;;;;;5035330;28;20021;-75
2022/04/26 10:47:03;;;;;;;5.05;3.97;;;13.50;48.70;;;;;;5034881;28;20072;-76
2022/04/26 10:49:40;;;;;;;8.02;3.67;;;13.30;49.00;;;;;;5034721;28;20414;-76
2022/04/26 10:52:13;;;;;;;5.15;3.05;;;13.20;47.50;;;;;;5034855;28;20448;-76
2022/04/26 10:55:03;;;;;;;5.47;3.53;;;13.00;44.20;;;;;;5034294;28;20032;-76
2022/04/26 10:57:44;;;;;;;6.38;3.22;;;12.50;46.80;;;;;;5034615;28;20546;-76
2022/04/26 11:00:26;;;;;;;5.13;3.90;;;12.50;46.60;;;;;;5034175;28;20014;-76
2022/04/26 11:02:51;;;;;;;5.07;3.95;;;12.50;51.80;;;;;;5034112;28;20386;-76
2022/04/26 11:05:25;;;;;;;5.43;4.20;;;12.40;55.40;;;;;;5034735;28;20032;-76
2022/04/26 11:07:52;;;;;;;6.60;3.67;;;12.20;55.80;;;;;;5034476;28;20029;-76
2022/04/26 11:10:23;;;;;;;6.63;3.50;;;12.10;56.60;;;;;;5034356;28;20025;-76
2022/04/26 11:12:50;;;;;;;5.97;3.15;;;11.90;57.60;;;;;;5034214;28;20052;-76
2022/04/26 11:15:19;;;;;;;4.55;2.75;;;11.60;56.00;;;;;;5033590;28;20039;-75
2022/04/26 11:17:46;;;;;;;7.15;3.03;;;11.40;56.00;;;;;;5034029;28;20021;-74
2022/04/26 11:20:25;;;;;;;4.30;2.75;;;11.20;57.00;;;;;;5034318;28;20101;-75
2022/04/26 11:22:58;;;;;;;3.95;2.60;;;11.00;58.40;;;;;;5034210;28;20038;-76
2022/04/26 11:28:12;;;;;;;5.47;3.22;;;10.20;66.90;;;;;;5034421;28;20063;-75
2022/04/26 11:30:54;;;;;;;4.43;2.10;;;9.90;69.20;;;;;;5034113;28;20069;-76
2022/04/26 11:33:24;;;;;;;9.27;3.80;;;9.80;70.30;;;;;;5033898;28;20029;-74
2022/04/26 11:35:52;;;;;;;12.95;5.20;;;9.70;70.30;;;;;;5033556;28;20502;-74
2022/04/26 11:38:18;;;;;;;14.93;5.78;;;9.70;70.90;;;;;;5032541;28;20037;-74
2022/04/26 11:40:52;;;;;;;11.20;5.22;;;9.60;73.10;;;;;;5033867;28;20498;-74
2022/04/26 11:43:22;;;;;;;8.45;3.70;;;9.30;74.80;;;;;;5032630;28;20066;-74
2022/04/26 11:45:52;;;;;;;9.82;3.13;;;8.90;76.50;;;;;;5034031;28;20021;-75
2022/04/26 11:48:23;;;;;;;4.38;2.78;;;8.70;75.60;;;;;;5033765;28;20048;-74
2022/04/26 11:50:50;;;;;;;5.18;2.80;;;8.50;77.00;;;;;;5033828;28;20091;-75
2022/04/26 11:53:28;;;;;;;3.97;3.00;;;8.30;76.40;;;;;;5033721;28;20017;-74
2022/04/26 11:55:58;;;;;;;4.97;2.30;;;8.30;76.80;;;;;;5033777;28;20053;-76
2022/04/26 11:58:27;;;;;;;4.50;3.08;;;8.30;74.90;;;;;;5033620;28;20021;-76
2022/04/26 12:01:00;;;;;;;3.22;2.30;;;8.20;73.80;;;;;;5033527;28;20029;-77
2022/04/26 12:03:34;;;;;;;6.35;2.80;;;8.10;72.60;;;;;;5033571;28;20487;-76
2022/04/26 12:06:06;;;;;;;4.05;3.17;;;8.00;75.00;;;;;;5033587;28;20036;-77
2022/04/26 12:08:45;;;;;;;4.55;2.90;;;7.80;74.90;;;;;;5033580;28;20033;-76
2022/04/26 12:11:28;;;;;;;6.63;3.42;;;7.60;76.10;;;;;;5033560;28;20018;-75
2022/04/26 12:14:11;;;;;;;5.10;3.15;;;7.60;77.10;;;;;;5033597;28;20097;-75
2022/04/26 12:16:47;;;;;;;3.63;2.80;;;7.80;70.70;;;;;;5033846;28;20144;-74
2022/04/26 12:19:14;;;;;;;5.15;2.88;;;8.10;71.90;;;;;;5033555;28;20029;-75
2022/04/26 12:21:54;;;;;;;5.07;3.60;;;8.60;72.40;;;;;;5033122;28;20076;-74
2022/04/26 12:24:29;;;;;;;5.93;2.90;;;9.60;71.90;;;;;;5033325;28;20101;-75
2022/04/26 12:27:01;;;;;;;5.03;2.70;;;10.50;68.70;;;;;;5032544;28;20660;-75
2022/04/26 12:29:36;;;;;;;2.50;2.05;;;11.70;70.10;;;;;;5033029;28;20029;-74
2022/04/26 12:32:06;;;;;;;2.07;1.70;;;12.70;69.00;;;;;;5033052;28;20033;-75
2022/04/26 12:34:32;;;;;;;4.30;2.63;;;13.50;68.10;;;;;;5033099;28;20264;-74
2022/04/26 12:37:06;;;;;;;3.65;2.28;;;14.30;66.70;;;;;;5032950;28;20594;-74
2022/04/26 12:39:48;;;;;;;3.72;2.40;;;14.90;63.60;;;;;;5033277;28;20091;-76
2022/04/26 12:42:17;;;;;;;5.43;2.28;;;15.60;56.70;;;;;;5032154;28;20037;-75
2022/04/26 12:44:56;;;;;;;4.75;2.70;;;15.80;47.60;;;;;;5033166;28;20071;-75
2022/04/26 12:52:56;;;;;;;5.38;3.20;;;15.20;44.80;;;;;;5033068;28;20049;-76
2022/04/26 12:55:40;;;;;;;5.22;3.33;;;15.20;44.40;;;;;;5032845;28;20032;-76
2022/04/26 12:58:10;;;;;;;8.55;3.20;;;15.10;45.90;;;;;;5032860;28;20147;-76
2022/04/26 13:00:41;;;;;;;4.43;3.30;;;14.40;48.00;;;;;;5032653;28;20025;-75
2022/04/26 13:03:09;;;;;;;4.45;3.13;;;14.00;50.20;;;;;;5032782;28;20065;-75
2022/04/26 13:05:36;;;;;;;3.90;2.92;;;13.70;50.80;;;;;;5032608;28;20029;-76
2022/04/26 13:08:02;;;;;;;3.65;3.20;;;13.70;51.80;;;;;;5032689;28;20025;-76
2022/04/26 13:10:27;;;;;;;3.75;3.13;;;13.00;54.90;;;;;;5032433;28;20053;-75
2022/04/26 13:12:53;;;;;;;5.10;3.35;;;12.50;56.20;;;;;;5032468;28;20174;-75
2022/04/26 13:15:23;;;;;;;11.38;3.30;;;12.70;56.00;;;;;;5032520;28;20356;-75
2022/04/26 13:17:48;;;;;;;5.43;3.83;;;12.40;57.50;;;;;;5032476;28;20013;-76
2022/04/26 13:20:14;;;;;;;4.53;3.70;;;12.70;56.30;;;;;;5032141;28;20502;-74
2022/04/26 13:22:40;;;;;;;5.72;3.92;;;13.00;54.80;;;;;;5032092;28;20034;-75
2022/04/26 13:25:07;;;;;;;7.13;4.53;;;12.70;53.10;;;;;;5032274;28;20032;-74
2022/04/26 13:27:34;;;;;;;7.90;5.45;;;12.50;52.90;;;;;;5032419;28;20021;-74
2022/04/26 13:30:01;;;;;;;6.40;4.60;;;11.90;56.20;;;;;;5032299;28;20022;-77
2022/04/26 13:32:30;;;;;;;8.70;5.30;;;11.20;58.20;;;;;;5032177;28;20101;-76
2022/04/26 13:34:57;;;;;;;6.30;4.93;;;11.20;57.90;;;;;;5032092;28;20022;-77
2022/04/26 13:37:24;;;;;;;7.25;5.20;;;11.30;58.20;;;;;;5030878;28;20045;-76
2022/04/26 13:39:50;;;;;;;7.63;5.18;;;11.00;59.60;;;;;;5035307;28;20024;-76
2022/04/26 13:42:16;;;;;;;6.25;4.80;;;11.00;61.70;;;;;;5036236;28;20033;-78
2022/04/26 13:44:42;;;;;;;6.70;4.72;;;11.10;61.00;;;;;;5036379;28;20014;-76
2022/04/26 13:47:09;;;;;;;5.80;4.55;;;11.10;61.50;;;;;;5036265;28;20088;-76
2022/04/26 13:49:36;;;;;;;7.60;5.82;;;11.30;61.10;;;;;;5036257;28;20024;-76
2022/04/26 13:52:02;;;;;;;8.70;6.55;;;11.50;61.50;;;;;;5036175;28;20034;-76
2022/04/26 13:54:28;;;;;;;9.40;6.60;;;11.40;60.00;;;;;;5036252;28;20022;-76
2022/04/26 13:56:55;;;;;;;9.23;6.80;;;11.50;60.30;;;;;;5036224;28;20043;-76
2022/04/26 13:59:22;;;;;;;9.48;6.80;;;11.60;59.40;;;;;;5036126;28;20033;-76
2022/04/26 14:01:49;;;;;;;11.15;6.88;;;11.90;58.10;;;;;;5035876;28;20064;-76
2022/04/26 14:04:15;;;;;;;9.57;6.55;;;12.10;55.70;;;;;;5036044;28;20017;-76
2022/04/26 14:06:41;;;;;;;8.80;6.85;;;12.20;54.60;;;;;;5035886;28;20029;-77
2022/04/26 14:09:06;;;;;;;12.63;7.30;;;12.30;53.60;;;;;;5035970;28;20574;-76
2022/04/26 14:11:32;;;;;;;12.07;6.75;;;12.10;52.90;;;;;;5037039;28;20030;-76
2022/04/26 14:22:11;;;;;;;8.57;5.18;;;11.60;68.20;;;;;;5035656;28;20407;-75
2022/04/26 14:24:38;;;;;;;9.57;6.40;;;12.70;64.20;;;;;;5035691;28;20487;-76
2022/04/26 14:27:04;;;;;;;8.20;6.13;;;13.50;56.30;;;;;;5035487;28;20030;-75
2022/04/26 14:29:30;;;;;;;9.00;5.80;;;14.30;52.50;;;;;;5035466;28;20372;-76
2022/04/26 14:31:55;;;;;;;8.13;5.90;;;14.80;48.60;;;;;;5035343;28;20079;-74
2022/04/26 14:34:22;;;;;;;8.98;6.85;;;15.00;47.70;;;;;;5035444;28;20025;-76
2022/04/26 14:36:48;;;;;;;6.18;5.10;;;15.00;46.90;;;;;;5035251;28;20141;-77
2022/04/26 14:39:15;;;;;;;9.32;5.68;;;15.30;49.80;;;;;;5035470;28;20486;-74
2022/04/26 14:41:41;;;;;;;8.38;6.50;;;15.60;46.40;;;;;;5035064;28;20040;-76
2022/04/26 14:44:07;;;;;;;6.93;5.72;;;15.40;46.60;;;;;;5035177;28;20040;-79
2022/04/26 14:46:36;;;;;;;8.30;5.97;;;15.30;46.40;;;;;;5035078;28;20132;-77
2022/04/26 14:49:03;;;;;;;9.07;6.18;;;15.30;45.80;;;;;;5035073;28;20240;-77
2022/04/26 14:51:29;;;;;;;10.35;6.60;;;14.90;48.10;;;;;;5034067;28;20100;-75
2022/04/26 14:53:55;;;;;;;8.43;6.22;;;14.90;46.30;;;;;;5034976;28;20107;-74
2022/04/26 14:56:21;;;;;;;10.13;6.78;;;14.50;47.80;;;;;;5034677;28;20076;-76
2022/04/26 14:58:49;;;;;;;8.82;6.28;;;14.00;48.60;;;;;;5034927;28;20029;-75
2022/04/26 15:01:15;;;;;;;6.72;6.03;;;13.80;51.40;;;;;;5034948;28;20021;-75
2022/04/26 15:03:40;;;;;;;11.45;6.95;;;13.50;53.80;;;;;;5035163;28;20076;-75
2022/04/26 15:06:06;;;;;;;9.48;6.22;;;12.80;55.10;;;;;;5034872;28;20021;-76
2022/04/26 15:11:16;;;;;;;10.50;6.80;;;12.80;54.30;;;;;;5034755;28;20040;-76
2022/04/26 15:16:38;;;;;;;11.23;7.43;;;12.40;56.80;;;;;;5034669;28;20372;-75
2022/04/26 15:19:11;;;;;;;8.30;6.57;;;12.20;58.00;;;;;;5034926;28;20104;-75
2022/04/26 15:21:38;;;;;;;10.77;5.88;;;12.20;58.70;;;;;;5034476;28;20029;-76
2022/04/26 15:24:04;;;;;;;7.75;6.18;;;12.10;58.90;;;;;;5034639;28;20044;-74
2022/04/26 15:26:30;;;;;;;11.98;7.22;;;12.20;58.80;;;;;;5034396;28;20021;-76
2022/04/26 15:28:56;;;;;;;10.48;6.57;;;12.20;59.00;;;;;;5034380;28;20033;-76
2022/04/26 15:31:22;;;;;;;9.18;6.80;;;12.00;60.50;;;;;;5034253;28;20041;-75
2022/04/26 15:33:52;;;;;;;8.60;6.40;;;11.60;62.40;;;;;;5034265;28;20025;-74
2022/04/26 15:36:19;;;;;;;10.25;6.90;;;11.50;64.80;;;;;;5033061;28;20045;-74
2022/04/26 15:38:47;;;;;;;10.90;7.38;;;11.40;67.90;;;;;;5034401;28;20025;-75
2022/04/26 15:41:14;;;;;;;10.73;7.28;;;11.30;70.00;;;;;;5034112;28;20484;-75
2022/04/26 15:43:40;;;;;;;10.13;7.68;;;11.30;69.60;;;;;;5034142;28;20095;-75
2022/04/26 15:46:08;;;;;;;10.02;8.10;;;11.30;69.60;;;;;;5033983;28;20018;-76
2022/04/26 15:48:37;;;;;;;16.80;10.60;;;11.40;69.10;;;;;;5034206;28;20427;-76
2022/04/26 15:51:04;;;;;;;9.35;7.47;;;11.70;69.00;;;;;;5034237;28;20048;-76
2022/04/26 15:53:30;;;;;;;9.07;5.88;;;11.90;67.00;;;;;;5034125;28;20037;-76
2022/04/26 15:55:55;;;;;;;10.75;6.65;;;12.40;66.00;;;;;;5033936;28;20107;-75
2022/04/26 15:58:21;;;;;;;10.88;7.75;;;13.00;63.80;;;;;;5033869;28;20033;-76
2022/04/26 16:00:47;;;;;;;12.80;8.07;;;13.40;61.60;;;;;;5033484;28;20494;-75
2022/04/26 16:03:12;;;;;;;13.55;7.68;;;13.70;60.30;;;;;;5033532;28;20032;-75
2022/04/26 16:05:40;;;;;;;11.65;6.78;;;13.90;58.40;;;;;;5033616;28;20032;-76
2022/04/26 16:08:07;;;;;;;12.05;6.38;;;13.70;58.00;;;;;;5033674;28;20049;-77
2022/04/26 16:21:30;;;;;;;6.80;5.05;;;13.40;56.20;;;;;;5033580;28;20446;-75
2022/04/26 16:23:57;;;;;;;7.53;5.30;;;13.10;56.20;;;;;;5032285;28;20391;-74
2022/04/26 16:26:24;;;;;;;5.75;4.45;;;12.70;57.50;;;;;;5033347;28;20029;-77
2022/04/26 16:28:53;;;;;;;6.25;4.57;;;12.50;57.70;;;;;;5032326;28;20025;-78
2022/04/26 16:31:24;;;;;;;7.30;4.88;;;12.10;58.40;;;;;;5033645;28;20363;-77
2022/04/26 16:33:50;;;;;;;5.57;4.63;;;11.90;61.00;;;;;;5033387;28;20025;-75
2022/04/26 16:36:17;;;;;;;6.78;4.97;;;11.90;61.50;;;;;;5032995;28;20046;-75
2022/04/26 16:38:43;;;;;;;5.85;4.80;;;11.90;60.00;;;;;;5032075;28;20057;-77
2022/04/26 16:41:09;;;;;;;5.72;4.57;;;11.90;59.70;;;;;;5033455;28;20057;-75
2022/04/26 16:43:35;;;;;;;5.45;4.70;;;11.80;60.40;;;;;;5033259;28;20644;-78
2022/04/26 16:46:01;;;;;;;6.60;4.70;;;11.80;60.80;;;;;;5033206;28;20431;-77
2022/04/26 16:48:27;;;;;;;7.53;4.55;;;11.80;60.40;;;;;;5033279;28;20029;-77
2022/04/26 16:50:53;;;;;;;7.47;4.80;;;11.60;60.90;;;;;;5033253;28;20048;-77
2022/04/26 16:53:19;;;;;;;5.40;4.63;;;11.50;62.50;;;;;;5033279;28;20026;-76
2022/04/26 16:55:46;;;;;;;5.85;4.47;;;11.30;63.10;;;;;;5033520;28;20033;-78
2022/04/26 16:58:13;;;;;;;5.00;4.43;;;11.30;63.30;;;;;;5033185;28;20128;-78
2022/04/26 17:00:41;;;;;;;5.25;4.60;;;11.40;62.40;;;;;;5032890;28;20041;-78
2022/04/26 17:03:07;;;;;;;6.75;5.25;;;11.30;62.40;;;;;;5031377;28;20514;-77
2022/04/26 17:05:33;;;;;;;7.07;5.43;;;11.20;63.90;;;;;;5031923;28;20057;-77
2022/04/26 17:07:58;;;;;;;7.03;5.55;;;11.00;66.10;;;;;;5031758;28;20025;-78
2022/04/26 17:10:25;;;;;;;6.97;4.93;;;11.10;65.80;;;;;;5031821;28;20017;-77
2022/04/26 17:12:52;;;;;;;7.60;5.15;;;11.00;63.40;;;;;;5031149;28;20029;-77
2022/04/26 17:15:21;;;;;;;4.82;4.30;;;10.90;62.70;;;;;;5031441;28;20116;-77
2022/04/26 17:17:47;;;;;;;6.00;4.80;;;10.90;61.90;;;;;;5029756;28;20025;-77
2022/04/26 17:20:14;;;;;;;7.57;5.30;;;10.70;66.10;;;;;;5032489;28;20022;-77